sensor_id;sensor_type;location;lat;lon;timestamp;pressure;altitude;pressure_sealevel;temperature;humidity
62946;BME280;52164;52.212;-1.010;2023-03-18T00:01:17;99454.34;;;10.03;79.53
62946;BME280;52164;52.212;-1.010;2023-03-18T00:03:42;99457.09;;;9.99;79.58
62946;BME280;52164;52.212;-1.010;2023-03-18T00:06:09;99454.82;;;9.95;79.58
62946;BME280;52164;52.212;-1.010;2023-03-18T00:08:36;99455.75;;;9.92;79.92
62946;BME280;52164;52.212;-1.010;2023-03-18T00:11:01;99458.79;;;9.91;79.81
62946;BME280;52164;52.212;-1.010;2023-03-18T00:13:29;99459.69;;;9.91;79.87
62946;BME280;52164;52.212;-1.010;2023-03-18T00:15:55;99455.77;;;9.93;80.09
62946;BME280;52164;52.212;-1.010;2023-03-18T00:18:21;99455.55;;;9.94;80.02
62946;BME280;52164;52.212;-1.010;2023-03-18T00:20:47;99457.30;;;9.95;80.20
62946;BME280;52164;52.212;-1.010;2023-03-18T00:23:12;99459.97;;;9.96;80.32
62946;BME280;52164;52.212;-1.010;2023-03-18T00:25:37;99461.55;;;9.98;80.20
62946;BME280;52164;52.212;-1.010;2023-03-18T00:28:04;99463.70;;;9.98;80.20
62946;BME280;52164;52.212;-1.010;2023-03-18T00:30:31;99464.22;;;9.99;79.94
62946;BME280;52164;52.212;-1.010;2023-03-18T00:32:57;99465.85;;;9.96;80.03
62946;BME280;52164;52.212;-1.010;2023-03-18T00:35:23;99468.36;;;9.95;80.24
62946;BME280;52164;52.212;-1.010;2023-03-18T00:37:52;99471.59;;;9.94;80.42
62946;BME280;52164;52.212;-1.010;2023-03-18T00:40:19;99468.74;;;9.94;80.30
62946;BME280;52164;52.212;-1.010;2023-03-18T00:42:45;99464.11;;;9.94;80.30
62946;BME280;52164;52.212;-1.010;2023-03-18T00:45:12;99463.40;;;9.93;80.44
62946;BME280;52164;52.212;-1.010;2023-03-18T00:47:38;99461.66;;;9.91;80.42
62946;BME280;52164;52.212;-1.010;2023-03-18T00:50:04;99464.89;;;9.90;80.60
62946;BME280;52164;52.212;-1.010;2023-03-18T00:52:31;99468.67;;;9.86;80.64
62946;BME280;52164;52.212;-1.010;2023-03-18T00:54:57;99469.57;;;9.86;80.66
62946;BME280;52164;52.212;-1.010;2023-03-18T00:57:23;99474.00;;;9.88;80.65
62946;BME280;52164;52.212;-1.010;2023-03-18T00:59:49;99468.44;;;9.90;80.66
62946;BME280;52164;52.212;-1.010;2023-03-18T01:02:15;99466.42;;;9.94;81.02
62946;BME280;52164;52.212;-1.010;2023-03-18T01:04:41;99469.77;;;9.97;81.07
62946;BME280;52164;52.212;-1.010;2023-03-18T01:07:07;99467.25;;;9.99;80.98
62946;BME280;52164;52.212;-1.010;2023-03-18T01:09:32;99467.92;;;10.02;81.01
62946;BME280;52164;52.212;-1.010;2023-03-18T01:11:58;99465.39;;;10.04;81.04
62946;BME280;52164;52.212;-1.010;2023-03-18T01:14:23;99461.08;;;10.07;80.84
62946;BME280;52164;52.212;-1.010;2023-03-18T01:16:49;99459.96;;;10.10;81.04
62946;BME280;52164;52.212;-1.010;2023-03-18T01:19:14;99459.39;;;10.12;80.97
62946;BME280;52164;52.212;-1.010;2023-03-18T01:21:40;99459.55;;;10.14;80.91
62946;BME280;52164;52.212;-1.010;2023-03-18T01:24:05;99461.47;;;10.16;80.78
62946;BME280;52164;52.212;-1.010;2023-03-18T01:26:31;99459.11;;;10.18;80.81
62946;BME280;52164;52.212;-1.010;2023-03-18T01:28:56;99455.70;;;10.21;80.93
62946;BME280;52164;52.212;-1.010;2023-03-18T01:31:22;99455.13;;;10.23;80.93
62946;BME280;52164;52.212;-1.010;2023-03-18T01:33:49;99452.79;;;10.23;80.57
62946;BME280;52164;52.212;-1.010;2023-03-18T01:36:14;99450.73;;;10.19;80.61
62946;BME280;52164;52.212;-1.010;2023-03-18T01:38:42;99453.47;;;10.15;80.51
62946;BME280;52164;52.212;-1.010;2023-03-18T01:41:07;99455.86;;;10.10;80.64
62946;BME280;52164;52.212;-1.010;2023-03-18T01:43:34;99461.99;;;10.05;80.63
62946;BME280;52164;52.212;-1.010;2023-03-18T01:46:00;99456.73;;;9.99;80.77
62946;BME280;52164;52.212;-1.010;2023-03-18T01:48:28;99452.34;;;9.95;80.67
62946;BME280;52164;52.212;-1.010;2023-03-18T01:50:59;99446.88;;;9.90;80.75
62946;BME280;52164;52.212;-1.010;2023-03-18T01:53:26;99446.44;;;9.83;80.95
62946;BME280;52164;52.212;-1.010;2023-03-18T01:55:52;99445.83;;;9.76;80.97
62946;BME280;52164;52.212;-1.010;2023-03-18T01:58:20;99448.95;;;9.69;81.25
62946;BME280;52164;52.212;-1.010;2023-03-18T02:00:48;99446.55;;;9.62;81.42
62946;BME280;52164;52.212;-1.010;2023-03-18T02:03:15;99443.59;;;9.56;81.58
62946;BME280;52164;52.212;-1.010;2023-03-18T02:05:41;99441.35;;;9.50;81.59
62946;BME280;52164;52.212;-1.010;2023-03-18T02:08:07;99439.31;;;9.43;81.55
62946;BME280;52164;52.212;-1.010;2023-03-18T02:10:33;99437.98;;;9.36;81.80
62946;BME280;52164;52.212;-1.010;2023-03-18T02:13:02;99443.04;;;9.28;81.78
62946;BME280;52164;52.212;-1.010;2023-03-18T02:15:28;99444.72;;;9.22;81.91
62946;BME280;52164;52.212;-1.010;2023-03-18T02:18:10;99439.23;;;9.19;82.10
62946;BME280;52164;52.212;-1.010;2023-03-18T02:21:12;99436.39;;;9.19;82.17
62946;BME280;52164;52.212;-1.010;2023-03-18T02:28:01;99427.42;;;9.25;82.16
62946;BME280;52164;52.212;-1.010;2023-03-18T02:28:34;99423.65;;;9.27;82.27
62946;BME280;52164;52.212;-1.010;2023-03-18T02:31:02;99422.04;;;9.28;82.21
62946;BME280;52164;52.212;-1.010;2023-03-18T02:33:30;99423.64;;;9.29;82.34
62946;BME280;52164;52.212;-1.010;2023-03-18T02:36:00;99430.91;;;9.31;82.17
62946;BME280;52164;52.212;-1.010;2023-03-18T02:38:27;99429.50;;;9.30;82.15
62946;BME280;52164;52.212;-1.010;2023-03-18T02:40:54;99433.77;;;9.31;82.18
62946;BME280;52164;52.212;-1.010;2023-03-18T02:48:14;99438.48;;;9.37;81.93
62946;BME280;52164;52.212;-1.010;2023-03-18T02:50:41;99437.60;;;9.38;81.93
62946;BME280;52164;52.212;-1.010;2023-03-18T02:53:10;99443.81;;;9.39;82.01
62946;BME280;52164;52.212;-1.010;2023-03-18T02:55:35;99441.11;;;9.42;82.12
62946;BME280;52164;52.212;-1.010;2023-03-18T02:58:01;99436.79;;;9.46;81.98
62946;BME280;52164;52.212;-1.010;2023-03-18T03:00:26;99437.27;;;9.50;82.11
62946;BME280;52164;52.212;-1.010;2023-03-18T03:02:53;99435.98;;;9.52;82.15
62946;BME280;52164;52.212;-1.010;2023-03-18T03:05:18;99442.19;;;9.55;82.15
62946;BME280;52164;52.212;-1.010;2023-03-18T03:07:44;99437.01;;;9.57;82.17
62946;BME280;52164;52.212;-1.010;2023-03-18T03:10:10;99434.48;;;9.58;82.21
62946;BME280;52164;52.212;-1.010;2023-03-18T03:12:37;99433.77;;;9.59;82.08
62946;BME280;52164;52.212;-1.010;2023-03-18T03:15:03;99432.68;;;9.60;82.25
62946;BME280;52164;52.212;-1.010;2023-03-18T03:17:29;99431.09;;;9.59;82.54
62946;BME280;52164;52.212;-1.010;2023-03-18T03:19:54;99430.39;;;9.58;82.48
62946;BME280;52164;52.212;-1.010;2023-03-18T03:22:20;99432.02;;;9.57;82.67
62946;BME280;52164;52.212;-1.010;2023-03-18T03:24:45;99436.27;;;9.58;82.72
62946;BME280;52164;52.212;-1.010;2023-03-18T03:27:11;99436.42;;;9.61;82.89
62946;BME280;52164;52.212;-1.010;2023-03-18T03:29:37;99428.04;;;9.61;82.63
62946;BME280;52164;52.212;-1.010;2023-03-18T03:32:03;99432.64;;;9.63;82.63
62946;BME280;52164;52.212;-1.010;2023-03-18T03:34:28;99434.39;;;9.65;82.68
62946;BME280;52164;52.212;-1.010;2023-03-18T03:36:53;99434.52;;;9.68;82.72
62946;BME280;52164;52.212;-1.010;2023-03-18T03:39:19;99435.35;;;9.72;82.69
62946;BME280;52164;52.212;-1.010;2023-03-18T03:41:45;99438.53;;;9.76;82.86
62946;BME280;52164;52.212;-1.010;2023-03-18T03:44:10;99435.45;;;9.78;82.73
62946;BME280;52164;52.212;-1.010;2023-03-18T03:46:36;99435.41;;;9.81;82.61
62946;BME280;52164;52.212;-1.010;2023-03-18T03:49:01;99436.45;;;9.83;82.81
62946;BME280;52164;52.212;-1.010;2023-03-18T03:51:26;99442.46;;;9.87;82.74
62946;BME280;52164;52.212;-1.010;2023-03-18T03:53:52;99442.08;;;9.90;82.57
62946;BME280;52164;52.212;-1.010;2023-03-18T03:56:18;99444.88;;;9.93;82.61
62946;BME280;52164;52.212;-1.010;2023-03-18T03:58:43;99444.33;;;9.94;82.50
62946;BME280;52164;52.212;-1.010;2023-03-18T04:01:09;99447.69;;;9.95;82.56
62946;BME280;52164;52.212;-1.010;2023-03-18T04:03:37;99448.36;;;9.98;82.48
62946;BME280;52164;52.212;-1.010;2023-03-18T04:06:02;99448.34;;;10.00;82.35
62946;BME280;52164;52.212;-1.010;2023-03-18T04:08:28;99448.14;;;10.01;82.22
62946;BME280;52164;52.212;-1.010;2023-03-18T04:10:53;99453.10;;;10.03;82.38
62946;BME280;52164;52.212;-1.010;2023-03-18T04:13:19;99450.95;;;10.04;82.19
62946;BME280;52164;52.212;-1.010;2023-03-18T04:15:44;99448.44;;;10.04;82.33
62946;BME280;52164;52.212;-1.010;2023-03-18T04:18:11;99448.98;;;10.04;82.23
62946;BME280;52164;52.212;-1.010;2023-03-18T04:20:37;99451.13;;;10.04;82.30
62946;BME280;52164;52.212;-1.010;2023-03-18T04:23:03;99455.05;;;10.04;82.26
62946;BME280;52164;52.212;-1.010;2023-03-18T04:25:28;99453.97;;;10.04;82.33
62946;BME280;52164;52.212;-1.010;2023-03-18T04:27:54;99455.42;;;10.04;82.40
62946;BME280;52164;52.212;-1.010;2023-03-18T04:30:20;99455.02;;;10.05;82.59
62946;BME280;52164;52.212;-1.010;2023-03-18T04:32:47;99452.89;;;10.05;82.64
62946;BME280;52164;52.212;-1.010;2023-03-18T04:35:14;99458.58;;;10.06;82.65
62946;BME280;52164;52.212;-1.010;2023-03-18T04:37:40;99452.89;;;10.07;82.74
62946;BME280;52164;52.212;-1.010;2023-03-18T04:40:06;99452.84;;;10.08;82.69
62946;BME280;52164;52.212;-1.010;2023-03-18T04:42:31;99458.94;;;10.07;82.74
62946;BME280;52164;52.212;-1.010;2023-03-18T04:44:57;99455.40;;;10.04;82.74
62946;BME280;52164;52.212;-1.010;2023-03-18T04:47:22;99465.20;;;10.04;82.64
62946;BME280;52164;52.212;-1.010;2023-03-18T04:49:48;99467.36;;;10.03;82.69
62946;BME280;52164;52.212;-1.010;2023-03-18T04:52:13;99467.41;;;10.00;82.65
62946;BME280;52164;52.212;-1.010;2023-03-18T04:54:39;99469.20;;;9.99;82.85
62946;BME280;52164;52.212;-1.010;2023-03-18T04:57:04;99467.27;;;9.97;82.90
62946;BME280;52164;52.212;-1.010;2023-03-18T04:59:30;99466.05;;;9.95;82.75
62946;BME280;52164;52.212;-1.010;2023-03-18T05:01:55;99468.58;;;9.93;82.98
62946;BME280;52164;52.212;-1.010;2023-03-18T05:04:22;99470.02;;;9.92;83.09
62946;BME280;52164;52.212;-1.010;2023-03-18T05:06:48;99469.35;;;9.89;83.03
62946;BME280;52164;52.212;-1.010;2023-03-18T05:09:13;99472.05;;;9.87;83.13
62946;BME280;52164;52.212;-1.010;2023-03-18T05:11:38;99471.88;;;9.87;83.33
62946;BME280;52164;52.212;-1.010;2023-03-18T05:14:04;99466.37;;;9.86;83.37
62946;BME280;52164;52.212;-1.010;2023-03-18T05:16:29;99468.65;;;9.87;83.27
62946;BME280;52164;52.212;-1.010;2023-03-18T05:18:54;99468.46;;;9.89;83.28
62946;BME280;52164;52.212;-1.010;2023-03-18T05:21:20;99467.73;;;9.90;83.44
62946;BME280;52164;52.212;-1.010;2023-03-18T05:23:45;99468.61;;;9.91;83.55
62946;BME280;52164;52.212;-1.010;2023-03-18T05:26:10;99469.14;;;9.92;83.27
62946;BME280;52164;52.212;-1.010;2023-03-18T05:28:36;99468.61;;;9.91;83.44
62946;BME280;52164;52.212;-1.010;2023-03-18T05:31:01;99467.33;;;9.93;83.52
62946;BME280;52164;52.212;-1.010;2023-03-18T05:33:27;99471.56;;;9.95;83.53
62946;BME280;52164;52.212;-1.010;2023-03-18T05:35:53;99475.83;;;9.97;83.51
62946;BME280;52164;52.212;-1.010;2023-03-18T05:38:19;99478.48;;;9.98;83.43
62946;BME280;52164;52.212;-1.010;2023-03-18T05:40:44;99481.52;;;9.98;83.42
62946;BME280;52164;52.212;-1.010;2023-03-18T05:43:12;99481.31;;;10.00;83.56
62946;BME280;52164;52.212;-1.010;2023-03-18T05:45:38;99480.92;;;10.03;83.65
62946;BME280;52164;52.212;-1.010;2023-03-18T05:48:03;99481.58;;;10.07;83.51
62946;BME280;52164;52.212;-1.010;2023-03-18T05:50:29;99481.00;;;10.09;83.49
62946;BME280;52164;52.212;-1.010;2023-03-18T05:52:55;99477.57;;;10.12;83.39
62946;BME280;52164;52.212;-1.010;2023-03-18T05:55:20;99477.54;;;10.14;83.35
62946;BME280;52164;52.212;-1.010;2023-03-18T05:57:47;99476.61;;;10.17;83.39
62946;BME280;52164;52.212;-1.010;2023-03-18T06:00:13;99481.73;;;10.20;83.28
62946;BME280;52164;52.212;-1.010;2023-03-18T06:02:39;99479.58;;;10.21;83.28
62946;BME280;52164;52.212;-1.010;2023-03-18T06:05:07;99477.59;;;10.23;83.39
62946;BME280;52164;52.212;-1.010;2023-03-18T06:07:32;99473.79;;;10.27;83.23
62946;BME280;52164;52.212;-1.010;2023-03-18T06:09:58;99476.07;;;10.29;83.18
62946;BME280;52164;52.212;-1.010;2023-03-18T06:12:23;99476.05;;;10.31;83.19
62946;BME280;52164;52.212;-1.010;2023-03-18T06:14:51;99471.94;;;10.31;83.19
62946;BME280;52164;52.212;-1.010;2023-03-18T06:17:16;99479.77;;;10.32;83.29
62946;BME280;52164;52.212;-1.010;2023-03-18T06:19:42;99485.30;;;10.34;83.10
62946;BME280;52164;52.212;-1.010;2023-03-18T06:22:09;99486.01;;;10.34;83.00
62946;BME280;52164;52.212;-1.010;2023-03-18T06:24:34;99494.77;;;10.33;83.14
62946;BME280;52164;52.212;-1.010;2023-03-18T06:26:59;99497.96;;;10.32;83.28
62946;BME280;52164;52.212;-1.010;2023-03-18T06:29:25;99497.45;;;10.30;83.28
62946;BME280;52164;52.212;-1.010;2023-03-18T06:31:50;99502.49;;;10.27;83.17
62946;BME280;52164;52.212;-1.010;2023-03-18T06:34:16;99500.75;;;10.24;83.26
62946;BME280;52164;52.212;-1.010;2023-03-18T06:36:42;99500.45;;;10.21;83.32
62946;BME280;52164;52.212;-1.010;2023-03-18T06:39:07;99501.92;;;10.17;83.47
62946;BME280;52164;52.212;-1.010;2023-03-18T06:41:32;99503.76;;;10.13;83.63
62946;BME280;52164;52.212;-1.010;2023-03-18T06:43:58;99506.67;;;10.09;83.72
62946;BME280;52164;52.212;-1.010;2023-03-18T06:46:23;99513.48;;;10.08;83.91
62946;BME280;52164;52.212;-1.010;2023-03-18T06:48:49;99508.17;;;10.04;84.00
62946;BME280;52164;52.212;-1.010;2023-03-18T06:51:14;99512.66;;;10.02;84.09
62946;BME280;52164;52.212;-1.010;2023-03-18T06:53:39;99516.40;;;10.02;84.24
62946;BME280;52164;52.212;-1.010;2023-03-18T06:56:06;99513.70;;;10.03;84.52
62946;BME280;52164;52.212;-1.010;2023-03-18T06:58:32;99514.55;;;10.07;84.50
62946;BME280;52164;52.212;-1.010;2023-03-18T07:00:57;99510.75;;;10.11;84.78
62946;BME280;52164;52.212;-1.010;2023-03-18T07:03:23;99515.14;;;10.16;84.52
62946;BME280;52164;52.212;-1.010;2023-03-18T07:05:50;99519.30;;;10.24;84.71
62946;BME280;52164;52.212;-1.010;2023-03-18T07:08:15;99523.13;;;10.32;84.65
62946;BME280;52164;52.212;-1.010;2023-03-18T07:10:41;99524.29;;;10.38;84.43
62946;BME280;52164;52.212;-1.010;2023-03-18T07:13:06;99530.11;;;10.44;84.37
62946;BME280;52164;52.212;-1.010;2023-03-18T07:15:33;99528.59;;;10.49;84.24
62946;BME280;52164;52.212;-1.010;2023-03-18T07:17:58;99529.36;;;10.58;84.27
62946;BME280;52164;52.212;-1.010;2023-03-18T07:20:24;99532.57;;;10.68;83.91
62946;BME280;52164;52.212;-1.010;2023-03-18T07:22:50;99537.22;;;10.79;83.78
62946;BME280;52164;52.212;-1.010;2023-03-18T07:25:15;99537.73;;;10.91;83.58
62946;BME280;52164;52.212;-1.010;2023-03-18T07:27:41;99536.66;;;11.01;83.54
62946;BME280;52164;52.212;-1.010;2023-03-18T07:30:07;99533.51;;;11.08;83.37
62946;BME280;52164;52.212;-1.010;2023-03-18T07:32:34;99531.64;;;11.13;83.10
62946;BME280;52164;52.212;-1.010;2023-03-18T07:35:01;99538.85;;;11.19;82.95
62946;BME280;52164;52.212;-1.010;2023-03-18T07:37:28;99544.67;;;11.23;82.79
62946;BME280;52164;52.212;-1.010;2023-03-18T07:39:53;99548.37;;;11.26;82.68
62946;BME280;52164;52.212;-1.010;2023-03-18T07:42:18;99546.51;;;11.30;82.52
62946;BME280;52164;52.212;-1.010;2023-03-18T07:44:45;99549.30;;;11.33;82.53
62946;BME280;52164;52.212;-1.010;2023-03-18T07:47:11;99553.42;;;11.33;82.17
62946;BME280;52164;52.212;-1.010;2023-03-18T07:49:38;99556.12;;;11.32;82.14
62946;BME280;52164;52.212;-1.010;2023-03-18T07:52:03;99554.76;;;11.29;82.18
62946;BME280;52164;52.212;-1.010;2023-03-18T07:54:29;99553.85;;;11.29;81.93
62946;BME280;52164;52.212;-1.010;2023-03-18T07:56:54;99553.16;;;11.27;81.72
62946;BME280;52164;52.212;-1.010;2023-03-18T07:59:19;99553.73;;;11.26;81.59
62946;BME280;52164;52.212;-1.010;2023-03-18T08:01:45;99556.06;;;11.26;81.58
62946;BME280;52164;52.212;-1.010;2023-03-18T08:04:10;99554.00;;;11.31;81.66
62946;BME280;52164;52.212;-1.010;2023-03-18T08:06:36;99557.77;;;11.39;81.74
62946;BME280;52164;52.212;-1.010;2023-03-18T08:09:02;99561.72;;;11.57;81.34
62946;BME280;52164;52.212;-1.010;2023-03-18T08:11:27;99561.73;;;11.75;81.24
62946;BME280;52164;52.212;-1.010;2023-03-18T08:13:53;99564.30;;;11.90;80.67
62946;BME280;52164;52.212;-1.010;2023-03-18T08:16:18;99564.69;;;12.07;80.66
62946;BME280;52164;52.212;-1.010;2023-03-18T08:18:43;99560.86;;;12.26;79.91
62946;BME280;52164;52.212;-1.010;2023-03-18T08:21:09;99563.25;;;12.40;79.55
62946;BME280;52164;52.212;-1.010;2023-03-18T08:23:35;99562.23;;;12.53;79.46
62946;BME280;52164;52.212;-1.010;2023-03-18T08:26:00;99567.13;;;12.66;78.99
62946;BME280;52164;52.212;-1.010;2023-03-18T08:28:25;99565.61;;;12.77;78.50
62946;BME280;52164;52.212;-1.010;2023-03-18T08:30:52;99568.14;;;12.83;77.83
62946;BME280;52164;52.212;-1.010;2023-03-18T08:33:18;99569.25;;;12.89;77.69
62946;BME280;52164;52.212;-1.010;2023-03-18T08:35:43;99572.41;;;12.92;77.41
62946;BME280;52164;52.212;-1.010;2023-03-18T08:38:08;99570.73;;;12.95;77.38
62946;BME280;52164;52.212;-1.010;2023-03-18T08:40:34;99571.91;;;12.97;77.04
62946;BME280;52164;52.212;-1.010;2023-03-18T08:42:59;99573.70;;;12.97;76.89
62946;BME280;52164;52.212;-1.010;2023-03-18T08:45:25;99569.99;;;12.96;76.73
62946;BME280;52164;52.212;-1.010;2023-03-18T08:47:52;99575.13;;;12.91;76.19
62946;BME280;52164;52.212;-1.010;2023-03-18T08:50:19;99575.61;;;12.85;76.26
62946;BME280;52164;52.212;-1.010;2023-03-18T08:52:44;99575.58;;;12.79;75.93
62946;BME280;52164;52.212;-1.010;2023-03-18T08:55:10;99577.99;;;12.75;76.24
62946;BME280;52164;52.212;-1.010;2023-03-18T08:57:35;99577.66;;;12.74;76.39
62946;BME280;52164;52.212;-1.010;2023-03-18T09:00:02;99579.83;;;12.74;76.59
62946;BME280;52164;52.212;-1.010;2023-03-18T09:02:29;99579.52;;;12.72;76.25
62946;BME280;52164;52.212;-1.010;2023-03-18T09:04:54;99575.71;;;12.66;76.02
62946;BME280;52164;52.212;-1.010;2023-03-18T09:07:21;99575.37;;;12.58;75.70
62946;BME280;52164;52.212;-1.010;2023-03-18T09:09:46;99573.55;;;12.51;76.05
62946;BME280;52164;52.212;-1.010;2023-03-18T09:12:11;99573.64;;;12.47;76.05
62946;BME280;52164;52.212;-1.010;2023-03-18T09:14:38;99573.16;;;12.44;75.92
62946;BME280;52164;52.212;-1.010;2023-03-18T09:17:04;99574.51;;;12.40;75.97
62946;BME280;52164;52.212;-1.010;2023-03-18T09:19:30;99576.55;;;12.38;76.10
62946;BME280;52164;52.212;-1.010;2023-03-18T09:21:55;99579.73;;;12.39;76.42
62946;BME280;52164;52.212;-1.010;2023-03-18T09:24:21;99581.33;;;12.40;76.16
62946;BME280;52164;52.212;-1.010;2023-03-18T09:26:46;99580.16;;;12.43;76.38
62946;BME280;52164;52.212;-1.010;2023-03-18T09:29:12;99581.84;;;12.48;76.35
62946;BME280;52164;52.212;-1.010;2023-03-18T09:31:37;99584.56;;;12.55;76.09
62946;BME280;52164;52.212;-1.010;2023-03-18T09:34:03;99583.41;;;12.58;75.67
62946;BME280;52164;52.212;-1.010;2023-03-18T09:36:28;99581.73;;;12.62;75.83
62946;BME280;52164;52.212;-1.010;2023-03-18T09:38:53;99584.60;;;12.69;75.62
62946;BME280;52164;52.212;-1.010;2023-03-18T09:41:21;99584.89;;;12.72;75.05
62946;BME280;52164;52.212;-1.010;2023-03-18T09:44:24;99590.70;;;12.75;75.50
62946;BME280;52164;52.212;-1.010;2023-03-18T09:46:47;99593.18;;;12.77;75.17
62946;BME280;52164;52.212;-1.010;2023-03-18T09:49:29;99591.20;;;12.78;74.82
62946;BME280;52164;52.212;-1.010;2023-03-18T09:54:32;99594.35;;;12.73;74.63
62946;BME280;52164;52.212;-1.010;2023-03-18T09:57:01;99594.83;;;12.75;74.90
62946;BME280;52164;52.212;-1.010;2023-03-18T10:01:53;99599.40;;;12.86;74.27
62946;BME280;52164;52.212;-1.010;2023-03-18T10:04:21;99596.17;;;12.94;73.98
62946;BME280;52164;52.212;-1.010;2023-03-18T10:06:49;99589.55;;;13.01;73.57
62946;BME280;52164;52.212;-1.010;2023-03-18T10:09:24;99590.20;;;13.11;73.55
62946;BME280;52164;52.212;-1.010;2023-03-18T10:11:53;99592.55;;;13.25;73.49
62946;BME280;52164;52.212;-1.010;2023-03-18T10:14:40;99589.98;;;13.35;72.93
62946;BME280;52164;52.212;-1.010;2023-03-18T10:17:16;99588.72;;;13.49;72.54
62946;BME280;52164;52.212;-1.010;2023-03-18T10:19:45;99589.52;;;13.60;72.62
62946;BME280;52164;52.212;-1.010;2023-03-18T10:22:28;99587.77;;;13.71;72.30
62946;BME280;52164;52.212;-1.010;2023-03-18T10:25:01;99593.42;;;13.87;72.21
62946;BME280;52164;52.212;-1.010;2023-03-18T10:27:48;99591.45;;;14.00;71.68
62946;BME280;52164;52.212;-1.010;2023-03-18T10:30:20;99595.92;;;14.12;71.50
62946;BME280;52164;52.212;-1.010;2023-03-18T10:32:53;99595.02;;;14.25;70.87
62946;BME280;52164;52.212;-1.010;2023-03-18T10:36:30;99594.67;;;14.37;70.39
62946;BME280;52164;52.212;-1.010;2023-03-18T10:40:18;99592.37;;;14.48;70.37
62946;BME280;52164;52.212;-1.010;2023-03-18T10:40:53;99594.98;;;14.56;69.98
62946;BME280;52164;52.212;-1.010;2023-03-18T10:43:28;99594.64;;;14.68;69.78
62946;BME280;52164;52.212;-1.010;2023-03-18T10:45:58;99590.36;;;14.78;69.46
62946;BME280;52164;52.212;-1.010;2023-03-18T10:48:33;99585.05;;;14.87;69.01
62946;BME280;52164;52.212;-1.010;2023-03-18T10:53:26;99588.02;;;15.06;68.45
62946;BME280;52164;52.212;-1.010;2023-03-18T10:55:57;99588.73;;;15.18;67.84
62946;BME280;52164;52.212;-1.010;2023-03-18T10:58:25;99590.31;;;15.29;68.15
62946;BME280;52164;52.212;-1.010;2023-03-18T11:00:52;99589.50;;;15.42;67.72
62946;BME280;52164;52.212;-1.010;2023-03-18T11:03:19;99588.69;;;15.55;67.53
62946;BME280;52164;52.212;-1.010;2023-03-18T11:05:46;99587.39;;;15.62;66.42
62946;BME280;52164;52.212;-1.010;2023-03-18T11:08:46;99584.23;;;15.64;66.22
62946;BME280;52164;52.212;-1.010;2023-03-18T11:11:12;99581.64;;;15.66;66.13
62946;BME280;52164;52.212;-1.010;2023-03-18T11:13:44;99586.55;;;15.64;65.79
62946;BME280;52164;52.212;-1.010;2023-03-18T11:16:11;99589.08;;;15.64;64.95
62946;BME280;52164;52.212;-1.010;2023-03-18T11:18:48;99587.34;;;15.58;64.78
62946;BME280;52164;52.212;-1.010;2023-03-18T11:21:15;99583.64;;;15.56;64.77
62946;BME280;52164;52.212;-1.010;2023-03-18T11:23:41;99583.59;;;15.57;64.49
62946;BME280;52164;52.212;-1.010;2023-03-18T11:26:21;99580.70;;;15.53;63.98
62946;BME280;52164;52.212;-1.010;2023-03-18T11:28:47;99584.11;;;15.52;64.00
62946;BME280;52164;52.212;-1.010;2023-03-18T11:31:16;99581.96;;;15.52;63.94
62946;BME280;52164;52.212;-1.010;2023-03-18T11:33:42;99583.24;;;15.57;64.28
62946;BME280;52164;52.212;-1.010;2023-03-18T11:36:08;99585.90;;;15.62;64.08
62946;BME280;52164;52.212;-1.010;2023-03-18T11:38:35;99588.57;;;15.69;63.79
62946;BME280;52164;52.212;-1.010;2023-03-18T11:41:04;99585.64;;;15.75;63.63
62946;BME280;52164;52.212;-1.010;2023-03-18T11:43:31;99585.10;;;15.75;62.97
62946;BME280;52164;52.212;-1.010;2023-03-18T11:45:57;99586.71;;;15.76;63.65
62946;BME280;52164;52.212;-1.010;2023-03-18T11:48:28;99584.20;;;15.70;63.38
62946;BME280;52164;52.212;-1.010;2023-03-18T11:53:25;99589.22;;;15.71;63.58
62946;BME280;52164;52.212;-1.010;2023-03-18T11:56:13;99583.78;;;15.72;63.02
62946;BME280;52164;52.212;-1.010;2023-03-18T12:00:53;99586.22;;;15.69;63.45
62946;BME280;52164;52.212;-1.010;2023-03-18T12:06:19;99585.46;;;15.81;62.93
62946;BME280;52164;52.212;-1.010;2023-03-18T12:09:05;99585.95;;;15.83;62.39
62946;BME280;52164;52.212;-1.010;2023-03-18T12:19:45;99581.30;;;15.92;61.46
62946;BME280;52164;52.212;-1.010;2023-03-18T12:22:36;99579.85;;;15.97;61.86
62946;BME280;52164;52.212;-1.010;2023-03-18T12:25:38;99581.50;;;16.06;62.10
62946;BME280;52164;52.212;-1.010;2023-03-18T12:30:22;99583.07;;;16.07;61.18
62946;BME280;52164;52.212;-1.010;2023-03-18T12:37:50;99585.36;;;16.03;61.08
62946;BME280;52164;52.212;-1.010;2023-03-18T12:45:15;99590.30;;;16.16;61.13
62946;BME280;52164;52.212;-1.010;2023-03-18T12:47:44;99589.23;;;16.15;60.62
62946;BME280;52164;52.212;-1.010;2023-03-18T12:52:59;99590.44;;;16.27;61.16
62946;BME280;52164;52.212;-1.010;2023-03-18T12:55:28;99584.79;;;16.33;61.03
62946;BME280;52164;52.212;-1.010;2023-03-18T12:58:04;99585.02;;;16.41;60.82
62946;BME280;52164;52.212;-1.010;2023-03-18T13:00:33;99584.06;;;16.47;60.49
62946;BME280;52164;52.212;-1.010;2023-03-18T13:05:37;99578.77;;;16.35;59.45
62946;BME280;52164;52.212;-1.010;2023-03-18T13:08:10;99576.25;;;16.34;59.45
62946;BME280;52164;52.212;-1.010;2023-03-18T13:10:42;99577.04;;;16.38;59.95
62946;BME280;52164;52.212;-1.010;2023-03-18T13:13:13;99577.66;;;16.41;60.34
62946;BME280;52164;52.212;-1.010;2023-03-18T13:15:41;99578.39;;;16.45;60.37
62946;BME280;52164;52.212;-1.010;2023-03-18T13:18:14;99578.02;;;16.50;59.87
62946;BME280;52164;52.212;-1.010;2023-03-18T13:20:44;99582.05;;;16.53;60.12
62946;BME280;52164;52.212;-1.010;2023-03-18T13:23:14;99579.43;;;16.50;59.59
62946;BME280;52164;52.212;-1.010;2023-03-18T13:25:50;99579.62;;;16.51;59.73
62946;BME280;52164;52.212;-1.010;2023-03-18T13:28:39;99578.91;;;16.54;59.24
62946;BME280;52164;52.212;-1.010;2023-03-18T13:31:25;99577.56;;;16.57;59.23
62946;BME280;52164;52.212;-1.010;2023-03-18T13:34:01;99580.48;;;16.60;59.02
62946;BME280;52164;52.212;-1.010;2023-03-18T13:37:40;99581.08;;;16.64;58.81
62946;BME280;52164;52.212;-1.010;2023-03-18T13:39:35;99577.98;;;16.65;58.73
62946;BME280;52164;52.212;-1.010;2023-03-18T13:44:29;99574.67;;;16.61;58.59
62946;BME280;52164;52.212;-1.010;2023-03-18T13:47:00;99572.79;;;16.64;58.55